Time;durP1;ratioP1;P1;durP2;ratioP2;P2;SDS_P1;SDS_P2;PMS_P1;PMS_P2;Temp;Humidity;BMP_temperature;BMP_pressure;BME280_temperature;BME280_humidity;BME280_pressure;Samples;Min_cycle;Max_cycle;Signal;HPM_P1;HPM_P2
2023/05/27 00:01:59;;;;;;;6.63;1.10;;;8.70;99.90;;;;;;4958623;28;20286;-83
2023/05/27 00:04:25;;;;;;;0.90;0.67;;;8.70;99.90;;;;;;4990611;28;20216;-81
2023/05/27 00:06:51;;;;;;;0.80;0.80;;;8.60;99.90;;;;;;4974173;28;20311;-83
2023/05/27 00:09:17;;;;;;;0.80;0.80;;;8.60;99.90;;;;;;4973964;28;20634;-82
2023/05/27 00:11:42;;;;;;;0.63;0.63;;;8.50;99.90;;;;;;4957848;28;20220;-84
2023/05/27 00:14:09;;;;;;;3.40;0.93;;;8.50;99.90;;;;;;4990427;28;20232;-81
2023/05/27 00:16:35;;;;;;;1.07;0.77;;;8.50;99.90;;;;;;4973950;28;20294;-82
2023/05/27 00:19:02;;;;;;;5.37;1.67;;;8.60;99.90;;;;;;4974144;28;20235;-84
2023/05/27 00:21:27;;;;;;;3.00;1.50;;;8.70;99.90;;;;;;4973797;28;20283;-82
2023/05/27 00:23:53;;;;;;;2.90;0.97;;;8.70;99.90;;;;;;4974608;28;20315;-82
2023/05/27 00:26:19;;;;;;;2.53;1.43;;;8.70;99.90;;;;;;4957149;28;20379;-83
2023/05/27 00:28:45;;;;;;;1.10;0.87;;;8.80;99.90;;;;;;4989141;28;20247;-82
2023/05/27 00:31:10;;;;;;;4.53;1.37;;;8.80;99.90;;;;;;4990526;28;20667;-84
2023/05/27 00:33:36;;;;;;;1.80;1.70;;;8.80;99.90;;;;;;4985482;28;20724;-82
2023/05/27 00:36:03;;;;;;;1.13;1.03;;;8.70;99.90;;;;;;4969944;28;20222;-83
2023/05/27 00:38:29;;;;;;;5.00;1.07;;;8.70;99.90;;;;;;4953848;28;20228;-84
2023/05/27 00:40:56;;;;;;;0.80;0.63;;;8.70;99.90;;;;;;4937854;28;20248;-83
2023/05/27 00:43:22;;;;;;;0.90;0.90;;;8.70;99.90;;;;;;4954235;28;20220;-84
2023/05/27 00:45:47;;;;;;;1.87;1.20;;;8.70;99.90;;;;;;4954340;28;20576;-83
2023/05/27 00:48:13;;;;;;;1.67;1.10;;;8.70;99.90;;;;;;4953969;28;20670;-84
2023/05/27 00:50:39;;;;;;;2.67;1.93;;;8.70;99.90;;;;;;4968688;28;20231;-83
2023/05/27 00:53:05;;;;;;;0.80;0.80;;;8.60;99.90;;;;;;4952300;28;20216;-82
2023/05/27 00:55:34;;;;;;;1.63;1.30;;;8.60;99.90;;;;;;4936520;28;20639;-83
2023/05/27 00:58:00;;;;;;;1.63;1.33;;;8.60;99.90;;;;;;4938058;28;20709;-84
2023/05/27 01:00:26;;;;;;;1.63;0.70;;;8.60;99.90;;;;;;4968958;28;20216;-81
2023/05/27 01:02:52;;;;;;;1.87;1.30;;;8.50;99.90;;;;;;4969481;28;20219;-81
2023/05/27 01:05:19;;;;;;;1.97;1.07;;;8.50;99.90;;;;;;4969211;28;20216;-81
2023/05/27 01:08:04;;;;;;;3.53;1.83;;;8.40;99.90;;;;;;4969518;28;20678;-81
2023/05/27 01:10:52;;;;;;;3.83;2.23;;;8.40;99.90;;;;;;4969761;28;20225;-81
2023/05/27 01:13:43;;;;;;;6.37;0.83;;;8.50;99.90;;;;;;4970754;28;20279;-81
2023/05/27 01:16:12;;;;;;;3.10;0.43;;;8.60;99.90;;;;;;4970001;28;20288;-81
2023/05/27 01:18:43;;;;;;;1.63;1.20;;;8.60;99.90;;;;;;4969987;28;20197;-82
2023/05/27 01:21:12;;;;;;;0.40;0.40;;;8.40;99.90;;;;;;4970304;28;20585;-81
2023/05/27 01:23:40;;;;;;;0.70;0.70;;;8.40;99.90;;;;;;4970582;28;20220;-82
2023/05/27 01:26:06;;;;;;;2.03;1.00;;;8.40;99.90;;;;;;4953891;28;20260;-83
2023/05/27 01:28:32;;;;;;;3.90;0.83;;;8.40;99.90;;;;;;4953471;28;20278;-82
2023/05/27 01:31:11;;;;;;;1.20;0.90;;;8.50;99.90;;;;;;4970653;28;20216;-81
2023/05/27 01:33:40;;;;;;;4.93;0.83;;;8.50;99.90;;;;;;4991443;28;20310;-81
2023/05/27 01:36:16;;;;;;;1.27;0.83;;;8.50;99.90;;;;;;5009110;28;20256;-82
2023/05/27 01:38:45;;;;;;;2.70;1.03;;;8.50;99.90;;;;;;5009859;28;20230;-83
2023/05/27 01:41:14;;;;;;;1.87;1.37;;;8.60;99.90;;;;;;4991966;28;20223;-83
2023/05/27 01:43:40;;;;;;;1.30;1.13;;;8.60;99.90;;;;;;4976008;28;20223;-81
2023/05/27 01:46:06;;;;;;;1.73;1.60;;;8.60;99.90;;;;;;4975930;28;20229;-83
2023/05/27 01:48:32;;;;;;;1.73;1.53;;;8.60;99.90;;;;;;5009598;28;20241;-82
2023/05/27 01:50:58;;;;;;;4.33;1.87;;;8.70;99.90;;;;;;4960456;28;20765;-81
2023/05/27 01:53:24;;;;;;;2.23;1.00;;;8.70;99.90;;;;;;4974748;28;20226;-81
2023/05/27 01:55:50;;;;;;;1.17;1.07;;;8.70;99.90;;;;;;4975185;28;20676;-82
2023/05/27 01:58:15;;;;;;;7.43;1.07;;;8.50;99.90;;;;;;4975700;28;20226;-83
2023/05/27 02:00:41;;;;;;;1.93;1.17;;;8.50;99.90;;;;;;4992072;28;20214;-84
2023/05/27 02:03:07;;;;;;;5.13;1.87;;;8.40;99.90;;;;;;4976494;28;20180;-83
2023/05/27 02:05:33;;;;;;;4.03;0.97;;;8.40;99.90;;;;;;4975806;28;20306;-82
2023/05/27 02:07:58;;;;;;;1.90;0.63;;;8.50;99.90;;;;;;4975725;28;20791;-82
2023/05/27 02:10:24;;;;;;;1.20;1.10;;;8.50;99.90;;;;;;4975660;28;20211;-81
2023/05/27 02:12:50;;;;;;;4.73;1.83;;;8.50;99.90;;;;;;4991662;28;20211;-82
2023/05/27 02:15:16;;;;;;;7.73;1.40;;;8.50;99.90;;;;;;4976283;28;20213;-83
2023/05/27 02:17:44;;;;;;;4.70;1.07;;;8.40;99.90;;;;;;4991762;28;20247;-83
2023/05/27 02:20:11;;;;;;;4.33;0.80;;;8.40;99.90;;;;;;4976366;28;20265;-83
2023/05/27 02:22:37;;;;;;;3.40;1.43;;;8.50;99.90;;;;;;4976099;28;20219;-84
2023/05/27 02:25:03;;;;;;;2.10;0.73;;;8.50;99.90;;;;;;4959608;28;20539;-82
2023/05/27 02:27:28;;;;;;;2.40;1.33;;;8.50;99.90;;;;;;4975200;28;20184;-84
2023/05/27 02:29:54;;;;;;;0.73;0.73;;;8.50;99.90;;;;;;4976287;28;20186;-83
2023/05/27 02:32:20;;;;;;;1.43;1.30;;;8.40;99.90;;;;;;4991594;28;20223;-83
2023/05/27 02:34:45;;;;;;;4.10;1.27;;;8.30;99.90;;;;;;4975517;28;20711;-82
2023/05/27 02:37:11;;;;;;;1.00;0.53;;;8.40;99.90;;;;;;4975519;28;20218;-83
2023/05/27 02:39:40;;;;;;;1.07;1.07;;;8.30;99.90;;;;;;5009130;28;20285;-86
2023/05/27 02:42:06;;;;;;;4.97;1.83;;;8.20;99.90;;;;;;4992115;28;20187;-83
2023/05/27 02:44:32;;;;;;;10.13;2.50;;;8.10;99.90;;;;;;4990911;28;20223;-82
2023/05/27 02:46:57;;;;;;;12.17;1.73;;;8.10;99.90;;;;;;4959388;28;20219;-81
2023/05/27 02:49:23;;;;;;;3.87;1.93;;;8.10;99.90;;;;;;4991607;28;20302;-81
2023/05/27 02:51:49;;;;;;;1.80;1.10;;;8.10;99.90;;;;;;4975189;28;20667;-83
2023/05/27 02:54:14;;;;;;;1.07;0.70;;;8.20;99.90;;;;;;4976122;28;20230;-81
2023/05/27 02:56:40;;;;;;;4.50;1.00;;;8.30;99.90;;;;;;4959466;28;20277;-81
2023/05/27 02:59:06;;;;;;;1.50;1.20;;;8.30;99.90;;;;;;4991082;28;20242;-81
2023/05/27 03:01:32;;;;;;;4.90;1.30;;;8.40;99.90;;;;;;4991221;28;20207;-81
2023/05/27 03:03:58;;;;;;;1.40;1.00;;;8.40;99.90;;;;;;4991540;28;20563;-81
2023/05/27 03:06:23;;;;;;;5.13;3.27;;;8.40;99.90;;;;;;4979103;28;20178;-81
2023/05/27 03:08:49;;;;;;;3.30;1.47;;;8.40;99.90;;;;;;4978812;28;20280;-81
2023/05/27 03:11:15;;;;;;;0.70;0.70;;;8.50;99.90;;;;;;4994749;28;20684;-81
2023/05/27 03:13:41;;;;;;;2.90;1.57;;;8.60;99.90;;;;;;5012214;28;20219;-83
2023/05/27 03:16:06;;;;;;;5.37;2.23;;;8.50;99.90;;;;;;4978333;28;20230;-80
2023/05/27 03:18:32;;;;;;;6.50;1.23;;;8.50;99.90;;;;;;4962209;28;20264;-83
2023/05/27 03:20:58;;;;;;;1.33;1.20;;;8.50;99.90;;;;;;4994954;28;20283;-84
2023/05/27 03:23:24;;;;;;;3.60;2.27;;;8.70;99.90;;;;;;4962011;28;20220;-81
2023/05/27 03:25:50;;;;;;;8.83;2.67;;;8.80;99.90;;;;;;4978112;28;20698;-83
2023/05/27 03:28:16;;;;;;;6.67;1.47;;;8.90;99.90;;;;;;4978117;28;20730;-84
2023/05/27 03:30:43;;;;;;;1.93;1.30;;;8.80;99.90;;;;;;4993610;28;20270;-82
2023/05/27 03:33:09;;;;;;;2.50;1.27;;;8.80;99.90;;;;;;4970941;28;20232;-82
2023/05/27 03:35:35;;;;;;;9.03;1.50;;;8.80;99.90;;;;;;4955314;28;20223;-82
2023/05/27 03:38:00;;;;;;;1.13;1.10;;;8.80;99.90;;;;;;4939518;28;20236;-81
2023/05/27 03:40:26;;;;;;;1.50;1.40;;;8.80;99.90;;;;;;4955508;28;20615;-81
2023/05/27 03:42:53;;;;;;;3.63;1.13;;;8.50;99.90;;;;;;4972693;28;20693;-81
2023/05/27 03:45:19;;;;;;;1.63;1.53;;;8.10;99.90;;;;;;4940567;28;20187;-81
2023/05/27 03:47:44;;;;;;;1.13;0.93;;;7.90;99.90;;;;;;4964856;28;20229;-81
2023/05/27 03:50:10;;;;;;;1.50;1.33;;;7.90;99.90;;;;;;4939390;28;20223;-81
2023/05/27 03:52:36;;;;;;;0.60;0.60;;;7.90;99.90;;;;;;4932475;28;20279;-82
2023/05/27 03:55:02;;;;;;;1.60;1.03;;;8.00;99.90;;;;;;4935186;28;20220;-83
2023/05/27 03:57:28;;;;;;;5.23;1.47;;;7.90;99.90;;;;;;4938386;28;20173;-82
2023/05/27 03:59:53;;;;;;;1.03;0.93;;;7.80;99.90;;;;;;4971138;28;20670;-83
2023/05/27 04:02:19;;;;;;;6.33;1.37;;;7.70;99.90;;;;;;4922782;28;20874;-81
2023/05/27 04:04:46;;;;;;;7.67;1.70;;;7.80;99.90;;;;;;4939132;28;20251;-82
2023/05/27 04:07:12;;;;;;;2.63;0.93;;;7.90;99.90;;;;;;4970410;28;20216;-83
2023/05/27 04:09:38;;;;;;;0.80;0.80;;;8.00;99.90;;;;;;4969244;28;20209;-82
2023/05/27 04:12:06;;;;;;;3.13;1.47;;;8.10;99.90;;;;;;4954150;28;20609;-81
2023/05/27 04:14:31;;;;;;;1.57;1.50;;;8.20;99.90;;;;;;4921622;28;20669;-83
2023/05/27 04:16:58;;;;;;;1.37;1.27;;;8.20;99.90;;;;;;4970240;28;20221;-83
2023/05/27 04:19:23;;;;;;;9.00;1.93;;;8.20;99.90;;;;;;4968962;28;20773;-83
2023/05/27 04:21:49;;;;;;;2.00;1.23;;;8.30;99.90;;;;;;4944980;28;20344;-84
2023/05/27 04:24:15;;;;;;;1.90;1.70;;;8.30;99.90;;;;;;4943279;28;20551;-83
2023/05/27 04:26:41;;;;;;;2.83;1.33;;;8.30;99.90;;;;;;4937754;28;20221;-84
2023/05/27 04:29:09;;;;;;;0.97;0.80;;;8.30;99.90;;;;;;4921695;28;20760;-82
2023/05/27 04:31:36;;;;;;;5.37;3.03;;;8.30;99.90;;;;;;4969712;28;20226;-84
2023/05/27 04:34:02;;;;;;;5.00;1.27;;;8.40;99.90;;;;;;4966350;28;20235;-83
2023/05/27 04:36:33;;;;;;;1.37;1.27;;;8.60;99.90;;;;;;4993602;28;20287;-83
2023/05/27 04:39:01;;;;;;;1.30;1.20;;;8.80;99.90;;;;;;4978170;28;20223;-84
2023/05/27 04:41:28;;;;;;;4.60;2.10;;;8.90;99.90;;;;;;4993363;28;20223;-82
2023/05/27 04:43:56;;;;;;;1.43;1.23;;;9.00;99.90;;;;;;4992922;28;20225;-82
2023/05/27 04:46:24;;;;;;;3.67;1.63;;;9.10;99.90;;;;;;4992096;28;20215;-83
2023/05/27 04:48:52;;;;;;;2.63;0.90;;;9.10;99.90;;;;;;4976479;28;20218;-83
2023/05/27 04:51:18;;;;;;;4.50;1.60;;;9.00;99.90;;;;;;5010723;28;20194;-84
2023/05/27 04:53:47;;;;;;;1.37;1.03;;;9.10;99.90;;;;;;5010163;28;20215;-83
2023/05/27 04:56:15;;;;;;;1.40;1.30;;;9.10;99.90;;;;;;4992887;28;20235;-81
2023/05/27 04:58:43;;;;;;;11.80;2.43;;;9.10;99.90;;;;;;4962429;28;20239;-84
2023/05/27 05:01:16;;;;;;;10.53;1.87;;;9.20;99.90;;;;;;4993855;28;20215;-83
2023/05/27 05:03:52;;;;;;;4.60;1.40;;;9.40;99.90;;;;;;4961645;28;20625;-83
2023/05/27 05:06:20;;;;;;;1.33;1.23;;;9.60;99.90;;;;;;4977095;28;20182;-82
2023/05/27 05:08:47;;;;;;;3.80;1.87;;;9.90;99.90;;;;;;4991377;28;20773;-81
2023/05/27 05:11:14;;;;;;;6.43;2.43;;;10.10;99.90;;;;;;4975622;28;20310;-84
2023/05/27 05:13:40;;;;;;;1.47;1.37;;;10.40;99.90;;;;;;4978450;28;20215;-82
2023/05/27 05:16:06;;;;;;;1.40;1.03;;;10.80;99.90;;;;;;5010235;28;20824;-84
2023/05/27 05:18:32;;;;;;;12.33;2.67;;;11.30;99.90;;;;;;4960818;28;20214;-83
2023/05/27 05:20:57;;;;;;;3.40;1.43;;;12.30;99.90;;;;;;4993748;28;20286;-84
2023/05/27 05:23:23;;;;;;;4.77;1.60;;;12.70;99.90;;;;;;4993354;28;20249;-81
2023/05/27 05:25:54;;;;;;;5.80;1.87;;;12.80;99.90;;;;;;4960219;28;20672;-83
2023/05/27 05:28:20;;;;;;;4.27;1.90;;;12.60;99.90;;;;;;4960989;28;20419;-83
2023/05/27 05:30:46;;;;;;;11.57;2.03;;;12.50;99.90;;;;;;5010482;28;20184;-83
2023/05/27 05:33:12;;;;;;;12.47;2.77;;;12.80;99.90;;;;;;5010772;28;20227;-83
2023/05/27 05:35:38;;;;;;;9.47;3.13;;;12.50;99.90;;;;;;4976266;28;20594;-83
2023/05/27 05:38:03;;;;;;;6.67;2.17;;;12.20;99.90;;;;;;4976077;28;20231;-83
2023/05/27 05:40:29;;;;;;;2.13;1.73;;;12.00;99.90;;;;;;4960488;28;20211;-82
2023/05/27 05:42:55;;;;;;;3.90;2.40;;;11.90;99.90;;;;;;4960924;28;20221;-81
2023/05/27 05:45:20;;;;;;;2.93;1.67;;;11.80;99.90;;;;;;4960713;28;20180;-82
2023/05/27 05:47:46;;;;;;;3.50;1.87;;;11.60;99.90;;;;;;4959938;28;20310;-83
2023/05/27 05:50:12;;;;;;;10.90;2.43;;;11.50;99.90;;;;;;4975722;28;20218;-81
2023/05/27 05:52:39;;;;;;;4.40;3.00;;;11.40;99.90;;;;;;4991693;28;20276;-82
2023/05/27 05:55:05;;;;;;;4.27;1.93;;;11.30;99.90;;;;;;5009498;28;20219;-82
2023/05/27 05:57:32;;;;;;;6.40;2.27;;;11.20;99.90;;;;;;5009833;28;20215;-82
2023/05/27 05:59:58;;;;;;;5.20;2.13;;;11.20;99.90;;;;;;4976594;28;20257;-82
2023/05/27 06:02:25;;;;;;;3.27;2.30;;;11.50;99.90;;;;;;4991326;28;20286;-84
2023/05/27 06:04:51;;;;;;;3.83;2.37;;;11.70;99.90;;;;;;4959693;28;20238;-79
2023/05/27 06:07:17;;;;;;;4.53;1.67;;;11.80;99.90;;;;;;5009468;28;20239;-83
2023/05/27 06:09:42;;;;;;;5.20;2.03;;;12.10;99.90;;;;;;4975794;28;20179;-82
2023/05/27 06:12:08;;;;;;;6.00;1.90;;;12.20;99.90;;;;;;4992446;28;20556;-79
2023/05/27 06:14:34;;;;;;;8.60;1.70;;;12.30;99.90;;;;;;4991462;28;20270;-81
2023/05/27 06:17:00;;;;;;;3.73;1.53;;;12.20;99.90;;;;;;5009026;28;20223;-80
2023/05/27 06:19:26;;;;;;;4.70;1.90;;;12.20;99.90;;;;;;4975728;28;20319;-81
2023/05/27 06:21:51;;;;;;;1.83;1.63;;;12.30;99.90;;;;;;4975774;28;20744;-80
2023/05/27 06:24:19;;;;;;;4.60;2.20;;;12.90;99.90;;;;;;4976067;28;20786;-81
2023/05/27 06:26:45;;;;;;;4.43;2.63;;;14.00;99.90;;;;;;5009269;28;20245;-81
2023/05/27 06:29:10;;;;;;;9.97;2.40;;;14.40;99.90;;;;;;4975338;28;20722;-84
2023/05/27 06:31:36;;;;;;;2.50;1.40;;;15.20;99.90;;;;;;4990007;28;20631;-81
2023/05/27 06:34:02;;;;;;;3.63;2.07;;;15.50;99.90;;;;;;4990282;28;20295;-82
2023/05/27 06:36:28;;;;;;;3.37;1.67;;;15.30;99.90;;;;;;4958216;28;20195;-82
2023/05/27 06:38:54;;;;;;;6.77;2.30;;;15.40;99.90;;;;;;4992165;28;20628;-81
2023/05/27 06:41:20;;;;;;;3.90;2.33;;;15.80;99.90;;;;;;5011691;28;20689;-83
2023/05/27 06:43:46;;;;;;;4.17;2.13;;;16.90;99.90;;;;;;4962636;28;20250;-82
2023/05/27 06:46:11;;;;;;;4.30;1.80;;;16.90;99.90;;;;;;4995330;28;20215;-82
2023/05/27 06:48:37;;;;;;;8.70;2.23;;;17.40;99.90;;;;;;4963146;28;20669;-81
2023/05/27 06:51:04;;;;;;;1.80;1.60;;;16.90;99.90;;;;;;5013918;28;20214;-83
2023/05/27 06:53:30;;;;;;;4.83;2.23;;;17.40;99.90;;;;;;4978984;28;20223;-80
2023/05/27 06:55:55;;;;;;;4.53;1.90;;;17.20;99.90;;;;;;4995746;28;20294;-82
2023/05/27 06:58:21;;;;;;;4.23;2.10;;;16.10;99.90;;;;;;4964117;28;20620;-81
2023/05/27 07:00:47;;;;;;;4.80;2.50;;;16.50;99.90;;;;;;4963293;28;20234;-82
2023/05/27 07:03:13;;;;;;;3.10;2.40;;;17.10;99.90;;;;;;4979606;28;20186;-81
2023/05/27 07:05:38;;;;;;;6.20;2.43;;;17.40;99.90;;;;;;4961437;28;20312;-81
2023/05/27 07:08:05;;;;;;;3.00;1.67;;;17.60;99.90;;;;;;4977866;28;20219;-83
2023/05/27 07:10:31;;;;;;;3.50;1.67;;;18.00;99.90;;;;;;4978384;28;20807;-83
2023/05/27 07:12:57;;;;;;;4.07;1.93;;;17.60;99.90;;;;;;4978977;28;20259;-82
2023/05/27 07:15:23;;;;;;;3.87;1.80;;;17.30;99.90;;;;;;4979027;28;20754;-82
2023/05/27 07:17:48;;;;;;;5.47;2.33;;;16.90;99.90;;;;;;4978492;28;20223;-82
2023/05/27 07:20:14;;;;;;;8.33;3.07;;;17.50;99.90;;;;;;4978480;28;20230;-82
2023/05/27 07:22:40;;;;;;;5.23;1.80;;;17.80;99.90;;;;;;4962165;28;20373;-82
2023/05/27 07:25:07;;;;;;;6.70;1.97;;;18.80;99.90;;;;;;4978539;28;20695;-83
2023/05/27 07:27:32;;;;;;;4.07;1.87;;;18.20;99.90;;;;;;4962035;28;20187;-82
2023/05/27 07:29:58;;;;;;;6.50;1.80;;;17.60;99.90;;;;;;4978895;28;20180;-83
2023/05/27 07:32:25;;;;;;;6.03;2.10;;;17.40;99.90;;;;;;4994472;28;20226;-83
2023/05/27 07:34:50;;;;;;;5.37;2.30;;;18.10;99.90;;;;;;4977637;28;20293;-83
2023/05/27 07:37:16;;;;;;;3.57;2.10;;;18.30;99.90;;;;;;4978173;28;20223;-82
2023/05/27 07:39:42;;;;;;;8.17;2.17;;;18.70;99.90;;;;;;4977823;28;20207;-83
2023/05/27 07:42:08;;;;;;;5.07;2.57;;;18.30;99.90;;;;;;4978317;28;20613;-83
2023/05/27 07:44:33;;;;;;;9.40;2.53;;;18.70;99.90;;;;;;4961771;28;20631;-84
2023/05/27 07:47:00;;;;;;;3.97;2.77;;;19.50;99.90;;;;;;4993584;28;20307;-82
2023/05/27 07:49:26;;;;;;;9.43;2.27;;;18.90;99.90;;;;;;4961729;28;20695;-82
2023/05/27 07:51:52;;;;;;;5.60;2.43;;;19.00;99.90;;;;;;4976681;28;20294;-83
2023/05/27 07:54:17;;;;;;;3.67;1.90;;;17.80;99.90;;;;;;4977858;28;20190;-81
2023/05/27 07:56:43;;;;;;;3.27;1.73;;;17.40;99.90;;;;;;4960874;28;20211;-82
2023/05/27 07:59:09;;;;;;;2.80;1.77;;;18.00;99.90;;;;;;4993411;28;20574;-82
2023/05/27 08:01:35;;;;;;;3.60;1.97;;;19.20;99.90;;;;;;4993480;28;20610;-85
2023/05/27 08:04:01;;;;;;;2.53;1.80;;;19.50;99.90;;;;;;4993970;28;20269;-84
2023/05/27 08:06:26;;;;;;;6.03;2.37;;;18.10;99.90;;;;;;4994481;28;20175;-85
2023/05/27 08:08:52;;;;;;;3.80;2.10;;;18.10;99.90;;;;;;5011433;28;20219;-84
2023/05/27 08:11:18;;;;;;;3.77;2.60;;;19.00;99.90;;;;;;4961453;28;20387;-85
2023/05/27 08:13:44;;;;;;;3.77;2.80;;;19.60;99.90;;;;;;4977186;28;20254;-85
2023/05/27 08:16:10;;;;;;;4.50;2.00;;;18.40;99.90;;;;;;4976844;28;20272;-86
2023/05/27 08:18:37;;;;;;;3.43;1.70;;;18.20;99.90;;;;;;5010902;28;20302;-85
2023/05/27 08:21:03;;;;;;;4.73;2.23;;;18.20;99.90;;;;;;5011259;28;20176;-85
2023/05/27 08:23:28;;;;;;;3.17;1.80;;;18.90;99.90;;;;;;4993638;28;20219;-85
2023/05/27 08:25:55;;;;;;;5.37;2.63;;;19.30;99.90;;;;;;4977291;28;20220;-83
2023/05/27 08:28:20;;;;;;;3.37;2.63;;;19.50;99.90;;;;;;4993693;28;20230;-84
2023/05/27 08:30:47;;;;;;;2.17;1.50;;;19.90;99.90;;;;;;4976949;28;20187;-85
2023/05/27 08:33:13;;;;;;;6.03;2.37;;;20.10;99.90;;;;;;4993224;28;20239;-86
2023/05/27 08:35:39;;;;;;;5.10;2.30;;;19.50;99.90;;;;;;4977291;28;20841;-85
2023/05/27 08:38:05;;;;;;;3.50;1.90;;;19.40;99.90;;;;;;5009186;28;20315;-84
2023/05/27 08:40:31;;;;;;;4.80;2.42;;;19.50;99.90;;;;;;4976926;28;20302;-85
2023/05/27 08:42:56;;;;;;;5.68;2.22;;;20.80;99.90;;;;;;4993252;28;20657;-85
2023/05/27 08:45:22;;;;;;;4.30;1.70;;;19.90;99.90;;;;;;4977761;28;20300;-85
2023/05/27 08:47:49;;;;;;;4.45;1.95;;;19.20;99.90;;;;;;4960594;28;20250;-85
2023/05/27 08:50:14;;;;;;;4.72;3.17;;;19.90;99.90;;;;;;4993142;28;20226;-84
2023/05/27 08:53:02;;;;;;;7.17;3.00;;;20.40;99.90;;;;;;4992470;28;20223;-84
2023/05/27 08:55:30;;;;;;;7.77;2.13;;;19.80;99.90;;;;;;5009362;28;20218;-85
2023/05/27 08:57:58;;;;;;;5.60;2.20;;;18.20;99.90;;;;;;4992060;28;20235;-84
2023/05/27 09:00:26;;;;;;;9.00;2.17;;;18.40;99.90;;;;;;4992924;28;20175;-84
2023/05/27 09:02:54;;;;;;;9.97;2.00;;;18.20;99.90;;;;;;4976250;28;20231;-83
2023/05/27 09:05:20;;;;;;;8.00;1.90;;;18.40;99.90;;;;;;4992915;28;20684;-82
2023/05/27 09:07:46;;;;;;;4.63;2.17;;;18.00;99.90;;;;;;4960521;28;20692;-82
2023/05/27 09:10:12;;;;;;;6.87;2.00;;;18.40;99.90;;;;;;4992458;28;20215;-82
2023/05/27 09:12:41;;;;;;;6.43;2.43;;;18.80;99.90;;;;;;4992461;28;20260;-84
2023/05/27 09:15:07;;;;;;;8.67;2.97;;;17.50;99.90;;;;;;4977293;28;20191;-83
2023/05/27 09:17:39;;;;;;;10.13;2.50;;;17.50;99.90;;;;;;4976495;28;20222;-83
2023/05/27 09:20:07;;;;;;;2.23;2.03;;;18.50;99.90;;;;;;4992669;28;20243;-84
2023/05/27 09:22:34;;;;;;;4.50;1.97;;;18.80;99.90;;;;;;4984052;28;20290;-84
2023/05/27 09:25:01;;;;;;;4.93;2.47;;;17.70;99.90;;;;;;5000812;28;20223;-82
2023/05/27 09:27:29;;;;;;;4.90;1.70;;;18.40;99.90;;;;;;5019036;28;20286;-84
2023/05/27 09:29:56;;;;;;;15.57;3.20;;;19.70;99.90;;;;;;4984650;28;20211;-83
2023/05/27 09:32:31;;;;;;;4.23;1.87;;;19.80;99.90;;;;;;4999838;28;20227;-82
2023/05/27 09:34:58;;;;;;;5.80;2.73;;;20.60;99.90;;;;;;4980793;28;20755;-82
2023/05/27 09:37:31;;;;;;;4.30;2.37;;;20.30;99.90;;;;;;4984618;28;20279;-83
2023/05/27 09:40:23;;;;;;;5.20;2.00;;;20.20;99.90;;;;;;5018493;28;20742;-83
2023/05/27 09:42:50;;;;;;;8.27;3.03;;;21.50;99.90;;;;;;5017853;28;20219;-82
2023/05/27 09:45:36;;;;;;;2.93;2.07;;;22.10;99.90;;;;;;4984853;28;20196;-83
2023/05/27 09:48:06;;;;;;;3.87;1.93;;;23.80;99.90;;;;;;5000497;28;20262;-82
2023/05/27 09:50:34;;;;;;;6.85;2.15;;;23.40;99.90;;;;;;4984782;28;20219;-82
2023/05/27 09:53:02;;;;;;;6.28;2.78;;;23.30;99.90;;;;;;4978206;28;20306;-83
2023/05/27 09:55:29;;;;;;;7.30;2.50;;;21.80;99.90;;;;;;5000839;28;20226;-82
2023/05/27 09:57:55;;;;;;;4.68;2.80;;;20.40;99.90;;;;;;4983946;28;20262;-83
2023/05/27 10:00:27;;;;;;;5.10;2.92;;;19.70;99.90;;;;;;5020032;28;20637;-83
2023/05/27 10:02:53;;;;;;;5.10;2.72;;;19.90;99.90;;;;;;4984744;28;20685;-83
2023/05/27 10:05:25;;;;;;;4.50;2.47;;;19.60;99.90;;;;;;5017432;28;20558;-82
2023/05/27 10:07:51;;;;;;;6.40;2.90;;;20.60;99.90;;;;;;5016449;28;20223;-83
2023/05/27 10:10:18;;;;;;;5.05;2.42;;;21.00;99.90;;;;;;4988619;28;20270;-83
2023/05/27 10:12:46;;;;;;;6.30;2.63;;;21.20;99.90;;;;;;4998648;28;20179;-83
2023/05/27 10:15:31;;;;;;;4.40;2.77;;;21.30;99.90;;;;;;5003059;28;20694;-84
2023/05/27 10:18:02;;;;;;;7.83;2.80;;;21.00;99.90;;;;;;5003122;28;20223;-84
2023/05/27 10:20:31;;;;;;;5.53;2.70;;;20.30;99.90;;;;;;5000963;28;20235;-83
2023/05/27 10:23:17;;;;;;;7.70;2.83;;;20.60;99.90;;;;;;5003582;28;20222;-84
2023/05/27 10:25:56;;;;;;;11.10;2.77;;;20.80;99.90;;;;;;5017379;28;20230;-84
2023/05/27 10:28:27;;;;;;;5.47;2.97;;;21.10;99.90;;;;;;5002734;28;20219;-83
2023/05/27 10:31:11;;;;;;;5.23;2.97;;;21.80;99.90;;;;;;5002254;28;20215;-83
2023/05/27 10:33:50;;;;;;;8.27;3.00;;;21.90;99.90;;;;;;4991830;28;20301;-84
2023/05/27 10:36:22;;;;;;;12.63;3.20;;;20.70;99.90;;;;;;5003206;28;20243;-82
2023/05/27 10:39:05;;;;;;;3.97;2.40;;;20.40;99.90;;;;;;5019712;28;20223;-83
2023/05/27 10:41:52;;;;;;;6.43;2.63;;;20.40;99.90;;;;;;4999985;28;20291;-83
2023/05/27 10:44:37;;;;;;;5.23;2.83;;;21.10;99.90;;;;;;5020047;28;20215;-83
2023/05/27 10:47:04;;;;;;;5.17;2.57;;;20.20;99.90;;;;;;5002109;28;20294;-83
2023/05/27 10:49:35;;;;;;;10.20;3.10;;;20.30;99.90;;;;;;4985925;28;20298;-82
2023/05/27 10:52:13;;;;;;;8.20;3.10;;;19.80;99.90;;;;;;4984778;28;20215;-81
2023/05/27 10:54:41;;;;;;;8.53;2.77;;;19.10;99.90;;;;;;5002305;28;20203;-82
2023/05/27 10:57:10;;;;;;;3.43;2.70;;;19.50;99.90;;;;;;5002462;28;20180;-81
2023/05/27 10:59:53;;;;;;;6.60;2.50;;;19.60;99.90;;;;;;4986131;28;20247;-84
2023/05/27 11:02:20;;;;;;;3.30;2.00;;;19.80;99.90;;;;;;5019675;28;20341;-83
2023/05/27 11:04:48;;;;;;;8.77;1.70;;;20.20;99.90;;;;;;4969535;28;20574;-83
2023/05/27 11:07:24;;;;;;;9.43;2.13;;;19.90;99.90;;;;;;5001275;28;20207;-83
2023/05/27 11:09:53;;;;;;;4.07;2.47;;;20.20;99.90;;;;;;5018517;28;20254;-81
2023/05/27 11:12:23;;;;;;;7.00;2.30;;;19.20;99.90;;;;;;4986283;28;20328;-81
2023/05/27 11:14:52;;;;;;;6.53;2.87;;;18.10;99.90;;;;;;5019890;28;20258;-83
2023/05/27 11:17:20;;;;;;;5.47;2.50;;;18.30;99.90;;;;;;5002063;28;20243;-83
2023/05/27 11:19:47;;;;;;;12.63;2.60;;;18.80;99.90;;;;;;5018776;28;20250;-83
2023/05/27 11:22:19;;;;;;;8.97;2.70;;;19.20;99.90;;;;;;4984212;28;20234;-83
2023/05/27 11:24:58;;;;;;;9.40;3.43;;;19.30;99.90;;;;;;5018214;28;20198;-83
2023/05/27 11:27:24;;;;;;;5.90;3.27;;;18.50;99.90;;;;;;5018704;28;20211;-84
2023/05/27 11:29:52;;;;;;;7.93;1.97;;;18.30;99.90;;;;;;5018332;28;20233;-84
2023/05/27 11:32:21;;;;;;;6.67;2.83;;;18.80;99.90;;;;;;4985431;28;20215;-82
2023/05/27 11:34:52;;;;;;;4.77;1.60;;;19.10;99.90;;;;;;5000974;28;20923;-83
2023/05/27 11:37:18;;;;;;;6.00;2.57;;;18.90;99.90;;;;;;4982918;28;20246;-83
2023/05/27 11:39:52;;;;;;;5.33;2.20;;;19.10;99.90;;;;;;4998737;28;20359;-84
2023/05/27 11:42:24;;;;;;;2.83;2.30;;;18.70;99.90;;;;;;4977520;28;20180;-83
2023/05/27 11:44:52;;;;;;;8.33;2.13;;;18.90;99.90;;;;;;4988719;28;20230;-83
2023/05/27 11:47:18;;;;;;;6.03;2.40;;;18.90;99.90;;;;;;4989034;28;20830;-83
2023/05/27 11:49:44;;;;;;;7.03;2.67;;;19.10;99.90;;;;;;4988586;28;20220;-83
2023/05/27 11:52:11;;;;;;;6.63;2.33;;;18.90;99.90;;;;;;4988689;28;20207;-83
2023/05/27 11:54:38;;;;;;;8.90;3.03;;;19.00;99.90;;;;;;4989043;28;20192;-83
2023/05/27 11:57:06;;;;;;;6.93;2.07;;;19.10;99.90;;;;;;4974434;28;20303;-84
2023/05/27 11:59:34;;;;;;;2.87;2.30;;;19.10;99.90;;;;;;4974238;28;20342;-84
2023/05/27 12:02:00;;;;;;;6.43;2.70;;;19.00;99.90;;;;;;4974226;28;20216;-83
2023/05/27 12:04:26;;;;;;;8.63;2.07;;;18.60;99.90;;;;;;4990147;28;20278;-85
2023/05/27 12:06:52;;;;;;;6.27;2.90;;;18.40;99.90;;;;;;4990167;28;20227;-84
2023/05/27 12:09:17;;;;;;;8.27;2.40;;;18.30;99.90;;;;;;4957543;28;20195;-83
2023/05/27 12:11:43;;;;;;;4.60;1.93;;;18.30;99.90;;;;;;4972504;28;20223;-83
2023/05/27 12:14:09;;;;;;;7.60;2.10;;;18.30;99.90;;;;;;4972439;28;20220;-83
2023/05/27 12:16:35;;;;;;;4.20;3.27;;;17.70;99.90;;;;;;4990471;28;20216;-82
2023/05/27 12:19:01;;;;;;;6.63;1.90;;;17.60;99.90;;;;;;4972610;28;20243;-82
2023/05/27 12:21:27;;;;;;;4.80;2.30;;;17.90;99.90;;;;;;4973273;28;20181;-82
2023/05/27 12:23:52;;;;;;;6.00;2.33;;;17.90;99.90;;;;;;4956417;28;20591;-85
2023/05/27 12:26:19;;;;;;;3.23;2.07;;;18.30;99.90;;;;;;4989622;28;20298;-84
2023/05/27 12:28:45;;;;;;;8.93;3.07;;;17.90;99.90;;;;;;4989458;28;20232;-83
2023/05/27 12:31:11;;;;;;;5.10;2.37;;;17.60;99.90;;;;;;4971941;28;20224;-83
2023/05/27 12:33:37;;;;;;;6.13;2.40;;;17.70;99.90;;;;;;4957577;28;20187;-84
2023/05/27 12:36:05;;;;;;;5.40;2.03;;;18.10;99.90;;;;;;4975742;28;20278;-83
2023/05/27 12:38:31;;;;;;;6.20;2.60;;;18.30;99.90;;;;;;4991452;28;20230;-87
2023/05/27 12:40:57;;;;;;;9.20;3.53;;;18.10;99.90;;;;;;4975841;28;20227;-85
2023/05/27 12:43:24;;;;;;;3.20;2.27;;;18.20;99.90;;;;;;5009365;28;20303;-84
2023/05/27 12:45:50;;;;;;;7.33;2.10;;;17.80;99.90;;;;;;5009095;28;20238;-87
2023/05/27 12:48:17;;;;;;;6.30;3.10;;;18.10;99.90;;;;;;4992895;28;20187;-87
2023/05/27 12:50:43;;;;;;;5.20;2.73;;;18.30;99.90;;;;;;4992812;28;20281;-86
2023/05/27 12:53:09;;;;;;;8.87;3.17;;;18.10;99.90;;;;;;4975582;28;20222;-84